createdAt,value
2022-09-02T00:00:34.649Z,7.90
2022-09-02T00:01:42.690Z,7.90
2022-09-02T00:02:51.433Z,7.80
2022-09-02T00:04:03.088Z,7.60
2022-09-02T00:05:09.027Z,8.80
2022-09-02T00:06:16.324Z,7.40
2022-09-02T00:07:22.095Z,8.30
2022-09-02T00:08:28.845Z,8.00
2022-09-02T00:09:38.552Z,7.30
2022-09-02T00:10:45.269Z,7.70
2022-09-02T00:11:54.431Z,7.10
2022-09-02T00:13:01.997Z,6.60
2022-09-02T00:14:13.097Z,7.10
2022-09-02T00:15:19.467Z,6.60
2022-09-02T00:16:28.305Z,6.60
2022-09-02T00:17:35.655Z,7.20
2022-09-02T00:18:45.747Z,6.40
2022-09-02T00:19:56.248Z,5.90
2022-09-02T00:21:03.347Z,6.60
2022-09-02T00:22:09.486Z,7.50
2022-09-02T00:23:16.313Z,6.30
2022-09-02T00:24:22.466Z,6.70
2022-09-02T00:25:28.466Z,6.10
2022-09-02T00:26:34.287Z,6.50
2022-09-02T00:27:41.066Z,6.30
2022-09-02T00:28:51.108Z,5.70
2022-09-02T00:30:06.528Z,5.60
2022-09-02T00:31:14.343Z,6.40
2022-09-02T00:32:23.308Z,6.40
2022-09-02T00:34:35.938Z,6.70
2022-09-02T00:35:42.180Z,6.10
2022-09-02T00:36:49.505Z,6.80
2022-09-02T00:37:57.147Z,6.00
2022-09-02T00:39:03.507Z,7.00
2022-09-02T00:40:12.386Z,6.50
2022-09-02T00:41:20.072Z,5.70
2022-09-02T00:42:26.428Z,5.80
2022-09-02T00:43:49.723Z,5.70
2022-09-02T00:44:55.684Z,6.00
2022-09-02T00:46:04.706Z,5.80
2022-09-02T00:47:11.258Z,7.50
2022-09-02T00:48:19.829Z,6.20
2022-09-02T00:49:29.400Z,6.00
2022-09-02T00:50:36.991Z,6.10
2022-09-02T00:52:00.747Z,6.40
2022-09-02T00:53:10.708Z,6.20
2022-09-02T00:54:16.565Z,6.00
2022-09-02T00:55:24.838Z,5.90
2022-09-02T00:56:32.919Z,5.80
2022-09-02T00:57:42.767Z,5.30
2022-09-02T00:58:51.671Z,5.90
2022-09-02T01:00:12.783Z,5.30
2022-09-02T01:01:20.237Z,5.30
2022-09-02T01:02:29.550Z,5.10
2022-09-02T01:03:36.631Z,7.20
2022-09-02T01:04:43.708Z,6.40
2022-09-02T01:05:50.689Z,6.50
2022-09-02T01:06:57.707Z,5.80
2022-09-02T01:08:04.024Z,5.90
2022-09-02T01:09:15.314Z,7.10
2022-09-02T01:10:24.629Z,6.00
2022-09-02T01:11:39.897Z,6.10
2022-09-02T01:12:46.469Z,5.80
2022-09-02T01:13:55.869Z,5.90
2022-09-02T01:15:03.748Z,7.90
2022-09-02T01:16:40.016Z,5.80
2022-09-02T01:17:49.907Z,5.80
2022-09-02T01:18:58.068Z,5.90
2022-09-02T01:20:12.615Z,6.80
2022-09-02T01:21:19.336Z,5.30
2022-09-02T01:22:30.129Z,6.70
2022-09-02T01:23:36.608Z,6.20
2022-09-02T01:24:44.563Z,6.40
2022-09-02T01:25:52.375Z,5.70
2022-09-02T01:26:58.952Z,7.00
2022-09-02T01:28:09.956Z,5.90
2022-09-02T01:29:17.387Z,5.90
2022-09-02T01:30:26.387Z,5.30
2022-09-02T01:31:32.643Z,5.80
2022-09-02T01:32:39.735Z,5.90
2022-09-02T01:33:45.596Z,6.90
2022-09-02T01:34:52.800Z,6.30
2022-09-02T01:35:58.626Z,6.20
2022-09-02T01:37:04.705Z,5.70
2022-09-02T01:38:10.334Z,6.10
2022-09-02T01:39:16.378Z,5.90
2022-09-02T01:40:24.357Z,6.90
2022-09-02T01:41:31.085Z,5.80
2022-09-02T01:42:37.007Z,6.00
2022-09-02T01:43:43.729Z,6.10
2022-09-02T01:44:51.136Z,7.00
2022-09-02T01:45:59.039Z,5.90
2022-09-02T01:47:06.918Z,6.30
2022-09-02T01:48:13.492Z,8.00
2022-09-02T01:49:23.775Z,6.70
2022-09-02T01:50:30.037Z,5.80
2022-09-02T01:51:36.848Z,7.20
2022-09-02T01:52:44.668Z,6.10
2022-09-02T01:53:51.529Z,7.30
2022-09-02T01:54:57.214Z,6.90
2022-09-02T01:56:06.239Z,7.50
2022-09-02T01:58:18.045Z,6.00
2022-09-02T01:59:24.477Z,6.60
2022-09-02T02:00:31.804Z,6.50
2022-09-02T02:01:38.056Z,8.40
2022-09-02T02:02:44.190Z,7.30
2022-09-02T02:03:51.408Z,7.20
2022-09-02T02:04:58.567Z,6.40
2022-09-02T02:06:11.728Z,6.50
2022-09-02T02:07:19.705Z,6.50
2022-09-02T02:08:29.987Z,8.10
2022-09-02T02:09:37.628Z,7.00
2022-09-02T02:10:43.804Z,6.90
2022-09-02T02:11:51.759Z,8.10
2022-09-02T02:12:58.397Z,6.50
2022-09-02T02:14:04.160Z,6.90
2022-09-02T02:15:11.908Z,7.10
2022-09-02T02:16:17.810Z,8.00
2022-09-02T02:17:23.591Z,9.10
2022-09-02T02:18:30.458Z,7.80
2022-09-02T02:19:36.394Z,7.60
2022-09-02T02:20:42.909Z,7.20
2022-09-02T02:21:51.044Z,7.00
2022-09-02T02:22:57.316Z,6.80
2022-09-02T02:24:03.389Z,7.10
2022-09-02T02:25:09.755Z,7.40
2022-09-02T02:26:16.665Z,7.40
2022-09-02T02:27:22.767Z,6.90
2022-09-02T02:28:31.874Z,7.30
2022-09-02T02:30:45.230Z,6.50
2022-09-02T02:31:52.257Z,6.80
2022-09-02T02:33:01.585Z,6.80
2022-09-02T02:34:07.626Z,7.20
2022-09-02T02:35:13.818Z,6.30
2022-09-02T02:36:20.298Z,6.70
2022-09-02T02:37:26.483Z,7.90
2022-09-02T02:38:35.687Z,7.80
2022-09-02T02:39:42.196Z,7.00
2022-09-02T02:40:48.414Z,6.40
2022-09-02T02:41:57.070Z,6.60
2022-09-02T02:43:03.789Z,6.40
2022-09-02T02:44:09.818Z,7.40
2022-09-02T02:45:15.630Z,6.70
2022-09-02T02:46:22.043Z,7.10
2022-09-02T02:47:29.308Z,7.60
2022-09-02T02:48:35.981Z,7.60
2022-09-02T02:49:42.659Z,8.40
2022-09-02T02:50:48.918Z,7.50
2022-09-02T02:51:55.077Z,6.70
2022-09-02T02:53:03.314Z,6.60
2022-09-02T02:54:09.468Z,8.10
2022-09-02T02:55:15.708Z,6.40
2022-09-02T02:56:21.858Z,5.90
2022-09-02T02:57:29.149Z,7.90
2022-09-02T02:58:36.487Z,6.60
2022-09-02T02:59:43.186Z,7.40
2022-09-02T03:00:49.607Z,6.40
2022-09-02T03:01:55.981Z,7.50
2022-09-02T03:03:08.910Z,6.50
2022-09-02T03:04:16.588Z,6.80
2022-09-02T03:05:23.120Z,8.00
2022-09-02T03:06:30.372Z,6.80
2022-09-02T03:07:35.907Z,6.10
2022-09-02T03:08:43.188Z,7.80
2022-09-02T03:09:50.667Z,6.50
2022-09-02T03:10:57.067Z,5.80
2022-09-02T03:12:06.356Z,7.70
2022-09-02T03:13:15.955Z,6.60
2022-09-02T03:14:22.947Z,5.90
2022-09-02T03:15:30.126Z,7.30
2022-09-02T03:16:38.268Z,6.30
2022-09-02T03:17:46.026Z,5.90
2022-09-02T03:18:52.148Z,6.00
2022-09-02T03:19:59.950Z,6.50
2022-09-02T03:21:11.242Z,6.40
2022-09-02T03:22:17.697Z,6.50
2022-09-02T03:23:24.343Z,7.20
2022-09-02T03:24:30.933Z,7.10
2022-09-02T03:25:38.166Z,6.20
2022-09-02T03:26:51.478Z,6.20
2022-09-02T03:27:57.878Z,6.10
2022-09-02T03:29:03.987Z,6.50
2022-09-02T03:30:11.298Z,7.00
2022-09-02T03:31:18.722Z,6.50
2022-09-02T03:32:28.193Z,6.70
2022-09-02T03:33:38.897Z,6.40
2022-09-02T03:34:46.058Z,5.90
2022-09-02T03:35:51.884Z,6.20
2022-09-02T03:37:01.227Z,6.50
2022-09-02T03:38:07.417Z,6.70
2022-09-02T03:39:16.588Z,6.40
2022-09-02T03:41:34.538Z,5.70
2022-09-02T03:42:43.215Z,7.20
2022-09-02T03:43:54.058Z,6.10
2022-09-02T03:45:02.784Z,5.70
2022-09-02T03:46:10.232Z,5.90
2022-09-02T03:47:20.693Z,6.30
2022-09-02T03:48:30.837Z,6.20
2022-09-02T03:49:37.161Z,6.80
2022-09-02T03:50:44.308Z,6.00
2022-09-02T03:51:54.439Z,6.40
2022-09-02T03:53:00.908Z,6.10
2022-09-02T03:54:08.327Z,5.80
2022-09-02T03:55:16.398Z,6.40
2022-09-02T03:56:22.543Z,5.90
2022-09-02T03:57:28.587Z,5.50
2022-09-02T03:58:35.940Z,5.90
2022-09-02T03:59:42.288Z,5.50
2022-09-02T04:00:52.307Z,5.50
2022-09-02T04:01:59.355Z,5.10
2022-09-02T04:03:05.746Z,5.50
2022-09-02T04:04:13.029Z,5.30
2022-09-02T04:05:19.337Z,6.20
2022-09-02T04:06:26.487Z,5.20
2022-09-02T04:07:42.189Z,5.30
2022-09-02T04:08:50.261Z,6.80
2022-09-02T04:09:57.155Z,5.70
2022-09-02T04:11:07.791Z,5.00
2022-09-02T04:12:13.677Z,5.80
2022-09-02T04:13:19.673Z,6.80
2022-09-02T04:14:26.438Z,5.50
2022-09-02T04:15:32.318Z,5.40
2022-09-02T04:16:39.627Z,5.90
2022-09-02T04:17:46.285Z,5.30
2022-09-02T04:18:58.688Z,5.70
2022-09-02T04:20:06.611Z,5.30
2022-09-02T04:21:15.506Z,5.60
2022-09-02T04:22:22.991Z,4.90
2022-09-02T04:23:30.008Z,5.00
2022-09-02T04:24:35.927Z,5.80
2022-09-02T04:25:44.746Z,5.00
2022-09-02T04:26:51.628Z,5.30
2022-09-02T04:27:57.960Z,5.30
2022-09-02T04:29:07.835Z,5.10
2022-09-02T04:30:16.977Z,5.60
2022-09-02T04:31:26.362Z,5.60
2022-09-02T04:32:37.107Z,5.40
2022-09-02T04:33:49.538Z,5.30
2022-09-02T04:34:55.582Z,4.60
2022-09-02T04:36:05.059Z,4.90
2022-09-02T04:37:13.996Z,4.70
2022-09-02T04:38:19.809Z,5.40
2022-09-02T04:39:32.424Z,5.90
2022-09-02T04:40:42.814Z,5.10
2022-09-02T04:41:49.246Z,5.20
2022-09-02T04:42:55.587Z,5.10
2022-09-02T04:44:01.792Z,6.50
2022-09-02T04:45:11.449Z,5.00
2022-09-02T04:46:17.685Z,5.40
2022-09-02T04:47:29.467Z,4.80
2022-09-02T04:48:37.137Z,4.90
2022-09-02T04:49:45.976Z,5.00
2022-09-02T04:50:52.267Z,5.40
2022-09-02T04:51:59.387Z,5.30
2022-09-02T04:53:06.107Z,4.60
2022-09-02T04:54:12.657Z,5.50
2022-09-02T04:55:20.748Z,4.90
2022-09-02T04:56:28.193Z,5.80
2022-09-02T04:57:35.434Z,4.80
2022-09-02T04:58:44.527Z,5.20
2022-09-02T04:59:50.807Z,6.10
2022-09-02T05:00:56.908Z,5.10
2022-09-02T05:02:03.568Z,5.70
2022-09-02T05:03:12.803Z,6.20
2022-09-02T05:05:30.107Z,5.20
2022-09-02T05:06:39.507Z,5.40
2022-09-02T05:07:48.547Z,6.40
2022-09-02T05:08:58.747Z,5.20
2022-09-02T05:10:07.536Z,5.70
2022-09-02T05:11:19.794Z,5.40
2022-09-02T05:12:28.231Z,6.10
2022-09-02T05:13:36.827Z,5.60
2022-09-02T05:14:44.137Z,5.00
2022-09-02T05:15:50.606Z,5.60
2022-09-02T05:16:57.907Z,5.50
2022-09-02T05:18:03.765Z,4.90
2022-09-02T05:19:12.687Z,4.60
2022-09-02T05:20:22.912Z,4.80
2022-09-02T05:21:34.201Z,5.90
2022-09-02T05:22:42.037Z,5.50
2022-09-02T05:23:49.218Z,5.50
2022-09-02T05:24:55.826Z,5.50
2022-09-02T05:26:09.887Z,5.30
2022-09-02T05:27:18.088Z,5.30
2022-09-02T05:28:24.775Z,5.20
2022-09-02T05:29:30.597Z,5.00
2022-09-02T05:30:40.905Z,6.00
2022-09-02T05:31:48.387Z,6.10
2022-09-02T05:32:54.467Z,5.90
2022-09-02T05:34:01.053Z,5.00
2022-09-02T05:35:07.761Z,5.00
2022-09-02T05:36:20.055Z,5.50
2022-09-02T05:37:29.068Z,5.30
2022-09-02T05:38:36.107Z,5.30
2022-09-02T05:39:42.391Z,4.70
2022-09-02T05:40:49.071Z,5.60
2022-09-02T05:41:55.877Z,5.30
2022-09-02T05:43:02.754Z,5.00
2022-09-02T05:44:09.039Z,5.30
2022-09-02T05:45:17.148Z,5.10
2022-09-02T05:46:24.086Z,5.20
2022-09-02T05:47:30.519Z,5.20
2022-09-02T05:49:00.630Z,4.90
2022-09-02T05:50:07.953Z,5.80
2022-09-02T05:51:14.867Z,5.20
2022-09-02T05:52:21.057Z,5.50
2022-09-02T05:53:29.988Z,6.90
2022-09-02T05:54:37.239Z,5.30
2022-09-02T05:55:46.055Z,5.50
2022-09-02T05:56:55.395Z,4.90
2022-09-02T05:58:02.928Z,6.20
2022-09-02T05:59:10.987Z,5.10
2022-09-02T06:00:17.796Z,5.30
2022-09-02T06:01:33.452Z,4.90
2022-09-02T06:02:39.910Z,5.90
2022-09-02T06:03:47.608Z,5.20
2022-09-02T06:04:56.268Z,4.50
2022-09-02T06:06:06.709Z,4.90
2022-09-02T06:07:16.548Z,5.60
2022-09-02T06:08:24.177Z,5.50
2022-09-02T06:09:30.428Z,6.10
2022-09-02T06:10:37.062Z,5.30
2022-09-02T06:11:45.965Z,5.20
2022-09-02T06:12:53.468Z,5.10
2022-09-02T06:14:01.118Z,4.80
2022-09-02T06:15:07.840Z,5.20
2022-09-02T06:16:16.461Z,5.00
2022-09-02T06:17:22.627Z,5.00
2022-09-02T06:18:32.027Z,5.30
2022-09-02T06:19:39.598Z,5.10
2022-09-02T06:20:47.418Z,5.50
2022-09-02T06:21:54.168Z,5.90
2022-09-02T06:23:01.956Z,5.10
2022-09-02T06:24:08.708Z,4.90
2022-09-02T06:25:17.837Z,5.30
2022-09-02T06:26:23.586Z,6.00
2022-09-02T06:27:32.707Z,4.80
2022-09-02T06:28:39.367Z,5.90
2022-09-02T06:29:46.819Z,6.10
2022-09-02T06:30:57.145Z,5.50
2022-09-02T06:32:05.970Z,5.40
2022-09-02T06:33:13.479Z,5.30
2022-09-02T06:34:21.646Z,5.40
2022-09-02T06:35:27.787Z,5.80
2022-09-02T06:36:36.217Z,4.80
2022-09-02T06:37:42.777Z,5.50
2022-09-02T06:38:52.227Z,6.40
2022-09-02T06:41:05.188Z,5.80
2022-09-02T06:42:16.080Z,5.90
2022-09-02T06:43:27.062Z,5.60
2022-09-02T06:44:52.392Z,5.50
2022-09-02T06:46:00.408Z,4.80
2022-09-02T06:47:10.667Z,4.80
2022-09-02T06:48:17.136Z,6.00
2022-09-02T06:49:24.319Z,6.20
2022-09-02T06:50:31.037Z,6.20
2022-09-02T06:51:44.438Z,5.60
2022-09-02T06:52:50.719Z,5.50
2022-09-02T06:53:57.187Z,5.40
2022-09-02T06:55:05.426Z,6.80
2022-09-02T06:56:11.507Z,5.50
2022-09-02T06:57:18.667Z,5.00
2022-09-02T06:58:28.778Z,5.40
2022-09-02T06:59:35.930Z,5.20
2022-09-02T07:00:43.287Z,5.90
2022-09-02T07:01:49.885Z,5.20
2022-09-02T07:03:18.658Z,5.90
2022-09-02T07:04:44.181Z,5.40
2022-09-02T07:06:11.673Z,5.30
2022-09-02T07:07:22.068Z,5.20
2022-09-02T07:08:31.667Z,5.10
2022-09-02T07:09:37.775Z,5.90
2022-09-02T07:10:50.320Z,5.70
2022-09-02T07:12:04.327Z,6.00
2022-09-02T07:13:15.322Z,5.20
2022-09-02T07:14:24.895Z,6.70
2022-09-02T07:15:33.948Z,6.00
2022-09-02T07:16:43.757Z,5.80
2022-09-02T07:17:53.239Z,5.80
2022-09-02T07:19:12.609Z,5.80
2022-09-02T07:20:25.077Z,5.90
2022-09-02T07:21:39.187Z,5.60
2022-09-02T07:22:48.109Z,6.00
2022-09-02T07:23:54.988Z,5.30
2022-09-02T07:25:00.947Z,5.70
2022-09-02T07:26:24.575Z,6.60
2022-09-02T07:27:30.922Z,5.60
2022-09-02T07:28:36.767Z,5.40
2022-09-02T07:29:49.609Z,5.90
2022-09-02T07:30:59.682Z,5.90
2022-09-02T07:32:08.428Z,5.30
2022-09-02T07:33:15.946Z,6.80
2022-09-02T07:34:22.708Z,5.60
2022-09-02T07:35:28.609Z,5.90
2022-09-02T07:36:38.667Z,5.40
2022-09-02T07:37:44.798Z,5.20
2022-09-02T07:38:51.207Z,5.40
2022-09-02T07:39:57.536Z,6.00
2022-09-02T07:41:04.439Z,5.00
2022-09-02T07:42:10.939Z,5.50
2022-09-02T07:43:19.197Z,5.90
2022-09-02T07:44:25.407Z,6.60
2022-09-02T07:45:32.795Z,6.00
2022-09-02T07:46:38.915Z,5.90
2022-09-02T07:47:46.352Z,5.80
2022-09-02T07:48:54.546Z,6.10
2022-09-02T07:50:19.068Z,5.20
2022-09-02T07:51:37.227Z,5.40
2022-09-02T07:52:43.671Z,6.30
2022-09-02T07:53:51.237Z,5.80
2022-09-02T07:54:58.139Z,5.00
2022-09-02T07:56:04.599Z,5.60
2022-09-02T07:57:12.829Z,6.20
2022-09-02T07:58:20.714Z,5.70
2022-09-02T07:59:27.966Z,5.50
2022-09-02T08:00:36.568Z,5.70
2022-09-02T08:01:45.868Z,6.60
2022-09-02T08:02:51.961Z,6.10
2022-09-02T08:04:05.703Z,5.90
2022-09-02T08:05:14.192Z,6.30
2022-09-02T08:06:33.710Z,5.70
2022-09-02T08:07:44.397Z,5.50
2022-09-02T08:08:51.235Z,5.30
2022-09-02T08:10:00.836Z,6.10
2022-09-02T08:11:07.201Z,6.00
2022-09-02T08:12:18.903Z,6.60
2022-09-02T08:13:28.390Z,5.40
2022-09-02T08:14:34.447Z,5.40
2022-09-02T08:15:41.897Z,5.80
2022-09-02T08:16:47.717Z,5.30
2022-09-02T08:17:54.515Z,6.60
2022-09-02T08:19:00.698Z,5.50
2022-09-02T08:20:12.425Z,5.80
2022-09-02T08:21:19.652Z,5.60
2022-09-02T08:22:26.494Z,5.90
2022-09-02T08:23:37.101Z,5.60
2022-09-02T08:24:45.986Z,6.30
2022-09-02T08:25:53.679Z,4.90
2022-09-02T08:27:00.238Z,5.50
2022-09-02T08:28:07.978Z,6.10
2022-09-02T08:29:13.867Z,5.30
2022-09-02T08:30:20.159Z,5.10
2022-09-02T08:31:26.815Z,5.70
2022-09-02T08:32:33.606Z,5.60
2022-09-02T08:33:40.549Z,5.70
2022-09-02T08:34:46.328Z,5.80
2022-09-02T08:35:52.684Z,5.40
2022-09-02T08:36:58.738Z,5.80
2022-09-02T08:38:05.656Z,5.90
2022-09-02T08:39:12.020Z,5.50
2022-09-02T08:40:23.319Z,6.20
2022-09-02T08:41:48.772Z,6.10
2022-09-02T08:44:04.015Z,5.20
2022-09-02T08:45:34.902Z,5.70
2022-09-02T08:46:40.832Z,7.20
2022-09-02T08:47:50.490Z,5.30
2022-09-02T08:49:08.948Z,5.70
2022-09-02T08:50:17.104Z,6.40
2022-09-02T08:52:01.236Z,6.00
2022-09-02T08:53:27.137Z,5.70
2022-09-02T08:55:17.716Z,5.70
2022-09-02T08:56:27.066Z,7.00
2022-09-02T08:58:41.715Z,6.10
2022-09-02T08:59:49.636Z,6.40
2022-09-02T09:01:10.139Z,7.20
2022-09-02T09:02:34.335Z,5.70
2022-09-02T09:04:06.407Z,6.00
2022-09-02T09:05:32.988Z,5.90
2022-09-02T09:07:04.300Z,6.40
2022-09-02T09:08:27.318Z,6.30
2022-09-02T09:09:33.679Z,5.90
2022-09-02T09:11:09.267Z,5.60
2022-09-02T09:12:39.344Z,7.50
2022-09-02T09:13:45.069Z,6.00
2022-09-02T09:15:04.474Z,5.80
2022-09-02T09:16:31.965Z,6.50
2022-09-02T09:17:51.894Z,6.80
2022-09-02T09:19:24.635Z,5.80
2022-09-02T09:20:42.246Z,7.10
2022-09-02T09:21:48.230Z,6.20
2022-09-02T09:22:59.788Z,5.90
2022-09-02T09:24:12.017Z,5.60
2022-09-02T09:25:19.078Z,5.80
2022-09-02T09:26:29.099Z,6.90
2022-09-02T09:27:35.319Z,5.80
2022-09-02T09:28:49.155Z,6.10
2022-09-02T09:29:55.608Z,6.20
2022-09-02T09:31:02.406Z,5.90
2022-09-02T09:32:16.087Z,5.80
2022-09-02T09:33:23.081Z,5.50
2022-09-02T09:35:08.405Z,6.90
2022-09-02T09:36:15.707Z,5.60
2022-09-02T09:37:38.346Z,6.10
2022-09-02T09:38:46.584Z,6.20
2022-09-02T09:39:54.425Z,6.60
2022-09-02T09:41:21.206Z,7.50
2022-09-02T09:42:36.118Z,6.90
2022-09-02T09:43:42.064Z,7.40
2022-09-02T09:44:51.806Z,6.30
2022-09-02T09:45:59.322Z,7.10
2022-09-02T09:47:11.737Z,6.60
2022-09-02T09:48:30.467Z,6.90
2022-09-02T09:49:39.795Z,7.20
2022-09-02T09:50:46.316Z,6.80
2022-09-02T09:51:57.947Z,6.00
2022-09-02T09:53:34.127Z,6.20
2022-09-02T09:54:40.326Z,6.20
2022-09-02T09:55:57.113Z,7.40
2022-09-02T09:57:22.047Z,7.00
2022-09-02T09:58:48.947Z,8.60
2022-09-02T09:59:57.428Z,7.80
2022-09-02T10:01:19.151Z,7.80
2022-09-02T10:02:26.552Z,6.80
2022-09-02T10:03:35.758Z,6.70
2022-09-02T10:04:43.611Z,6.60
2022-09-02T10:05:50.441Z,6.20
2022-09-02T10:06:57.739Z,6.60
2022-09-02T10:08:16.787Z,6.20
2022-09-02T10:09:23.315Z,6.70
2022-09-02T10:10:31.897Z,6.80
2022-09-02T10:11:38.687Z,6.70
2022-09-02T10:12:44.949Z,6.80
2022-09-02T10:13:51.405Z,6.50
2022-09-02T10:14:57.286Z,6.80
2022-09-02T10:16:28.690Z,6.50
2022-09-02T10:17:52.896Z,7.90
2022-09-02T10:19:08.037Z,7.30
2022-09-02T10:20:24.247Z,5.90
2022-09-02T10:21:58.051Z,6.80
2022-09-02T10:23:22.924Z,6.10
2022-09-02T10:25:00.934Z,6.50
2022-09-02T10:26:29.315Z,6.30
2022-09-02T10:28:04.959Z,7.00
2022-09-02T10:29:38.541Z,6.00
2022-09-02T10:31:13.605Z,6.30
2022-09-02T10:32:26.176Z,6.10
2022-09-02T10:33:52.498Z,6.00
2022-09-02T10:35:02.039Z,7.00
2022-09-02T10:36:25.364Z,7.00
2022-09-02T10:37:44.545Z,6.50
2022-09-02T10:38:51.993Z,6.50
2022-09-02T10:40:14.573Z,6.40
2022-09-02T10:43:08.746Z,6.10
2022-09-02T10:44:31.146Z,6.70
2022-09-02T10:45:48.095Z,6.40
2022-09-02T10:47:02.007Z,5.80
2022-09-02T10:48:38.426Z,7.30
2022-09-02T10:49:50.637Z,6.30
2022-09-02T10:51:18.187Z,5.90
2022-09-02T10:52:46.236Z,6.00
2022-09-02T10:54:13.476Z,7.20
2022-09-02T10:55:46.816Z,6.30
2022-09-02T10:57:14.776Z,6.80
2022-09-02T11:00:11.215Z,7.30
2022-09-02T11:01:34.258Z,6.10
2022-09-02T11:03:04.772Z,7.10
2022-09-02T11:04:18.437Z,7.30
2022-09-02T11:05:53.794Z,5.80
2022-09-02T11:07:03.051Z,6.20
2022-09-02T11:08:12.943Z,6.20
2022-09-02T11:09:58.666Z,6.10
2022-09-02T11:11:23.408Z,6.50
2022-09-02T11:12:36.267Z,6.70
2022-09-02T11:13:44.994Z,7.10
2022-09-02T11:15:22.913Z,6.30
2022-09-02T11:18:06.831Z,5.50
2022-09-02T11:19:21.947Z,6.40
2022-09-02T11:20:51.396Z,5.90
2022-09-02T11:22:11.366Z,6.90
2022-09-02T11:23:30.427Z,6.20
2022-09-02T11:24:46.459Z,7.20
2022-09-02T11:26:26.266Z,6.00
2022-09-02T11:27:56.186Z,6.20
2022-09-02T11:29:06.359Z,6.00
2022-09-02T11:30:18.777Z,6.50
2022-09-02T11:31:32.835Z,6.70
2022-09-02T11:33:17.354Z,6.20
2022-09-02T11:34:40.534Z,7.20
2022-09-02T11:35:46.096Z,6.40
2022-09-02T11:36:55.546Z,6.70
2022-09-02T11:38:02.934Z,9.00
2022-09-02T11:39:54.012Z,6.70
2022-09-02T11:41:41.355Z,6.00
2022-09-02T11:43:27.746Z,5.70
2022-09-02T11:45:11.563Z,6.10
2022-09-02T11:46:55.802Z,6.10
2022-09-02T11:48:31.707Z,6.50
2022-09-02T11:50:14.222Z,5.80
2022-09-02T11:51:56.994Z,6.60
2022-09-02T11:53:07.338Z,7.50
2022-09-02T11:54:14.854Z,6.80
2022-09-02T11:55:33.039Z,5.40
2022-09-02T11:56:43.625Z,6.70
2022-09-02T11:57:58.504Z,6.00
2022-09-02T11:59:05.038Z,6.10
2022-09-02T12:00:33.855Z,6.40
2022-09-02T12:01:44.011Z,8.30
2022-09-02T12:02:52.427Z,6.50
2022-09-02T12:04:56.115Z,7.90
2022-09-02T12:05:33.045Z,7.30
2022-09-02T12:06:38.981Z,7.90
2022-09-02T12:07:49.086Z,6.30
2022-09-02T12:08:56.465Z,6.90
2022-09-02T12:10:07.196Z,6.80
2022-09-02T12:11:40.788Z,7.10
2022-09-02T12:12:51.835Z,6.30
2022-09-02T12:14:04.039Z,6.80
2022-09-02T12:15:17.404Z,6.50
2022-09-02T12:16:23.329Z,7.10
2022-09-02T12:17:43.289Z,6.10
2022-09-02T12:18:55.426Z,7.70
2022-09-02T12:20:02.173Z,6.30
2022-09-02T12:21:16.337Z,7.40
2022-09-02T12:22:33.153Z,6.10
2022-09-02T12:23:56.893Z,7.30
2022-09-02T12:25:04.095Z,6.50
2022-09-02T12:26:15.948Z,6.90
2022-09-02T12:27:29.594Z,6.80
2022-09-02T12:28:37.814Z,7.50
2022-09-02T12:29:45.837Z,6.90
2022-09-02T12:31:09.685Z,7.30
2022-09-02T12:32:51.295Z,7.40
2022-09-02T12:34:03.175Z,7.10
2022-09-02T12:35:11.324Z,7.30
2022-09-02T12:36:56.267Z,7.50
2022-09-02T12:38:12.247Z,7.30
2022-09-02T12:39:30.187Z,6.90
2022-09-02T12:40:42.877Z,8.60
2022-09-02T12:42:28.206Z,8.10
2022-09-02T12:44:12.146Z,7.80
2022-09-02T12:45:29.412Z,6.70
2022-09-02T12:47:12.668Z,7.00
2022-09-02T12:48:30.438Z,8.20
2022-09-02T12:50:19.828Z,6.80
2022-09-02T12:51:54.416Z,7.00
2022-09-02T12:53:36.638Z,8.20
2022-09-02T12:54:51.337Z,8.60
2022-09-02T12:56:18.296Z,8.30
2022-09-02T12:57:39.466Z,7.50
2022-09-02T12:58:49.227Z,7.30
2022-09-02T13:00:00.586Z,7.30
2022-09-02T13:01:39.187Z,7.10
2022-09-02T13:03:12.546Z,7.50
2022-09-02T13:04:46.766Z,7.90
2022-09-02T13:06:28.163Z,7.60
2022-09-02T13:07:59.799Z,7.20
2022-09-02T13:09:40.796Z,7.10
2022-09-02T13:10:56.654Z,7.20
2022-09-02T13:12:20.592Z,6.90
2022-09-02T13:13:44.447Z,7.30
2022-09-02T13:15:04.537Z,7.10
2022-09-02T13:16:19.359Z,8.50
2022-09-02T13:17:36.376Z,8.60
2022-09-02T13:19:01.808Z,7.60
2022-09-02T13:20:27.727Z,7.50
2022-09-02T13:21:47.826Z,7.80
2022-09-02T13:23:06.975Z,7.90
2022-09-02T13:24:25.803Z,8.00
2022-09-02T13:25:45.757Z,9.10
2022-09-02T13:27:27.908Z,8.90
2022-09-02T13:28:39.601Z,8.30
2022-09-02T13:30:04.410Z,8.80
2022-09-02T13:31:21.714Z,7.40
2022-09-02T13:32:28.660Z,7.80
2022-09-02T13:33:41.891Z,8.40
2022-09-02T13:34:52.504Z,7.90
2022-09-02T13:36:01.807Z,8.00
2022-09-02T13:37:11.587Z,9.10
2022-09-02T13:38:25.076Z,7.30
2022-09-02T13:39:30.757Z,7.70
2022-09-02T13:40:37.624Z,7.90
2022-09-02T13:41:46.877Z,8.30
2022-09-02T13:42:55.036Z,9.70
2022-09-02T13:44:12.686Z,8.50
2022-09-02T13:45:20.516Z,10.30
2022-09-02T13:46:27.799Z,9.10
2022-09-02T13:47:34.209Z,7.60
2022-09-02T13:48:41.091Z,8.90
2022-09-02T13:49:48.047Z,7.60
2022-09-02T13:50:59.384Z,7.30
2022-09-02T13:52:06.277Z,7.50
2022-09-02T13:53:45.727Z,6.50
2022-09-02T13:55:06.126Z,8.00
2022-09-02T13:56:13.279Z,7.30
2022-09-02T13:57:28.836Z,7.60
2022-09-02T13:58:43.814Z,7.30
2022-09-02T13:59:53.235Z,7.00
2022-09-02T14:01:02.309Z,6.80
2022-09-02T14:02:27.819Z,8.20
2022-09-02T14:03:34.784Z,7.00
2022-09-02T14:04:40.733Z,8.10
2022-09-02T14:05:47.793Z,7.30
2022-09-02T14:06:54.556Z,7.80
2022-09-02T14:08:01.436Z,7.50
2022-09-02T14:09:19.837Z,7.10
2022-09-02T14:10:32.296Z,7.50
2022-09-02T14:11:43.876Z,7.60
2022-09-02T14:12:50.216Z,6.80
2022-09-02T14:13:57.931Z,7.20
2022-09-02T14:15:08.177Z,8.10
2022-09-02T14:16:49.742Z,7.30
2022-09-02T14:18:14.447Z,9.30
2022-09-02T14:19:28.368Z,7.20
2022-09-02T14:20:34.267Z,6.90
2022-09-02T14:21:49.014Z,7.00
2022-09-02T14:23:01.836Z,7.10
2022-09-02T14:24:08.089Z,7.70
2022-09-02T14:25:16.754Z,6.90
2022-09-02T14:26:38.576Z,7.20
2022-09-02T14:27:58.079Z,8.60
2022-09-02T14:29:07.266Z,6.70
2022-09-02T14:30:13.807Z,7.90
2022-09-02T14:31:31.101Z,8.50
2022-09-02T14:32:37.046Z,6.50
2022-09-02T14:33:44.138Z,6.70
2022-09-02T14:34:50.161Z,7.50
2022-09-02T14:36:06.197Z,6.70
2022-09-02T14:37:24.278Z,6.70
2022-09-02T14:38:33.727Z,6.90
2022-09-02T14:40:14.076Z,6.90
2022-09-02T14:41:24.166Z,7.20
2022-09-02T14:42:31.167Z,7.50
2022-09-02T14:43:59.461Z,7.10
2022-09-02T14:45:10.119Z,7.60
2022-09-02T14:46:26.170Z,7.00
2022-09-02T14:47:31.900Z,6.80
2022-09-02T14:48:40.936Z,6.90
2022-09-02T14:49:54.078Z,6.60
2022-09-02T14:51:02.767Z,7.70
2022-09-02T14:53:39.007Z,6.80
2022-09-02T14:54:48.007Z,6.20
2022-09-02T14:56:59.727Z,6.50
2022-09-02T14:58:07.057Z,7.60
2022-09-02T14:59:15.478Z,5.70
2022-09-02T15:00:22.116Z,5.50
2022-09-02T15:01:29.245Z,6.10
2022-09-02T15:02:36.494Z,5.90
2022-09-02T15:03:45.366Z,7.10
2022-09-02T15:04:52.012Z,6.40
2022-09-02T15:05:58.147Z,6.50
2022-09-02T15:07:04.287Z,5.90
2022-09-02T15:08:10.608Z,6.50
2022-09-02T15:09:18.917Z,6.50
2022-09-02T15:10:24.696Z,7.20
2022-09-02T15:11:30.206Z,7.30
2022-09-02T15:12:36.654Z,7.60
2022-09-02T15:13:42.436Z,5.60
2022-09-02T15:14:48.400Z,5.60
2022-09-02T15:15:56.059Z,7.10
2022-09-02T15:17:02.049Z,6.50
2022-09-02T15:18:09.350Z,7.70
2022-09-02T15:19:15.410Z,6.70
2022-09-02T15:20:22.348Z,6.60
2022-09-02T15:21:28.298Z,6.80
2022-09-02T15:22:35.687Z,7.40
2022-09-02T15:23:41.808Z,6.20
2022-09-02T15:24:49.175Z,6.20
2022-09-02T15:25:56.594Z,6.50
2022-09-02T15:27:02.597Z,6.90
2022-09-02T15:28:08.629Z,6.00
2022-09-02T15:29:14.398Z,8.10
2022-09-02T15:30:20.477Z,7.00
2022-09-02T15:31:27.357Z,8.00
2022-09-02T15:32:33.338Z,8.10
2022-09-02T15:33:42.616Z,7.00
2022-09-02T15:34:48.807Z,6.50
2022-09-02T15:35:55.356Z,7.20
2022-09-02T15:37:01.416Z,7.00
2022-09-02T15:38:09.961Z,6.30
2022-09-02T15:39:16.028Z,6.60
2022-09-02T15:40:22.157Z,6.10
2022-09-02T15:41:29.445Z,6.00
2022-09-02T15:42:38.776Z,7.00
2022-09-02T15:43:46.964Z,6.70
2022-09-02T15:44:54.406Z,6.20
2022-09-02T15:46:01.389Z,6.20
2022-09-02T15:47:07.377Z,5.80
2022-09-02T15:48:13.640Z,5.60
2022-09-02T15:49:20.788Z,5.90
2022-09-02T15:50:32.194Z,5.00
2022-09-02T15:51:39.818Z,4.50
2022-09-02T15:52:47.128Z,5.30
2022-09-02T15:54:02.214Z,5.00
2022-09-02T15:55:08.086Z,4.60
2022-09-02T15:56:24.863Z,5.60
2022-09-02T15:57:31.608Z,4.80
2022-09-02T15:58:38.457Z,5.80
2022-09-02T15:59:44.678Z,5.30
2022-09-02T16:00:50.689Z,4.50
2022-09-02T16:02:00.323Z,4.50
2022-09-02T16:03:07.905Z,4.50
2022-09-02T16:04:14.768Z,4.80
2022-09-02T16:05:22.266Z,5.50
2022-09-02T16:06:29.805Z,4.00
2022-09-02T16:07:37.186Z,4.40
2022-09-02T16:08:42.847Z,4.00
2022-09-02T16:09:48.507Z,4.50
2022-09-02T16:10:56.088Z,4.80
2022-09-02T16:12:02.317Z,3.70